sensor_id;sensor_type;location;lat;lon;timestamp;temperature;humidity
61253;DHT22;47127;47.516;8.596;2023-04-08T00:00:34;7.80;99.90
61253;DHT22;47127;47.516;8.596;2023-04-08T00:03:01;7.10;99.90
61253;DHT22;47127;47.516;8.596;2023-04-08T00:05:27;7.70;99.90
61253;DHT22;47127;47.516;8.596;2023-04-08T00:07:53;7.60;99.90
61253;DHT22;47127;47.516;8.596;2023-04-08T00:10:18;7.60;99.90
61253;DHT22;47127;47.516;8.596;2023-04-08T00:12:45;7.70;99.90
61253;DHT22;47127;47.516;8.596;2023-04-08T00:15:12;7.70;99.90
61253;DHT22;47127;47.516;8.596;2023-04-08T00:17:38;7.80;99.90
61253;DHT22;47127;47.516;8.596;2023-04-08T00:20:04;7.80;99.90
61253;DHT22;47127;47.516;8.596;2023-04-08T00:22:30;7.90;99.90
61253;DHT22;47127;47.516;8.596;2023-04-08T00:24:57;7.80;99.90
61253;DHT22;47127;47.516;8.596;2023-04-08T00:27:23;7.80;99.90
61253;DHT22;47127;47.516;8.596;2023-04-08T00:29:51;7.90;99.90
61253;DHT22;47127;47.516;8.596;2023-04-08T00:32:16;7.90;99.90
61253;DHT22;47127;47.516;8.596;2023-04-08T00:34:42;7.80;99.90
61253;DHT22;47127;47.516;8.596;2023-04-08T00:37:08;7.90;99.90
61253;DHT22;47127;47.516;8.596;2023-04-08T00:39:36;7.90;99.90
61253;DHT22;47127;47.516;8.596;2023-04-08T00:42:02;7.90;99.90
61253;DHT22;47127;47.516;8.596;2023-04-08T00:44:28;7.80;99.90
61253;DHT22;47127;47.516;8.596;2023-04-08T00:46:53;7.80;99.90
61253;DHT22;47127;47.516;8.596;2023-04-08T00:49:19;7.80;99.90
61253;DHT22;47127;47.516;8.596;2023-04-08T00:51:45;7.90;99.90
61253;DHT22;47127;47.516;8.596;2023-04-08T00:54:10;7.80;99.90
61253;DHT22;47127;47.516;8.596;2023-04-08T00:56:36;7.80;99.90
61253;DHT22;47127;47.516;8.596;2023-04-08T00:59:03;7.80;99.90
61253;DHT22;47127;47.516;8.596;2023-04-08T01:07:21;7.80;99.90
61253;DHT22;47127;47.516;8.596;2023-04-08T01:09:54;7.90;99.90
61253;DHT22;47127;47.516;8.596;2023-04-08T01:12:24;7.90;99.90
61253;DHT22;47127;47.516;8.596;2023-04-08T01:14:59;7.90;99.90
61253;DHT22;47127;47.516;8.596;2023-04-08T01:17:26;7.90;99.90
61253;DHT22;47127;47.516;8.596;2023-04-08T01:19:53;7.70;99.90
61253;DHT22;47127;47.516;8.596;2023-04-08T01:22:36;7.70;99.90
61253;DHT22;47127;47.516;8.596;2023-04-08T01:25:09;7.70;99.90
61253;DHT22;47127;47.516;8.596;2023-04-08T01:27:37;7.60;99.90
61253;DHT22;47127;47.516;8.596;2023-04-08T01:30:05;7.60;99.90
61253;DHT22;47127;47.516;8.596;2023-04-08T01:32:33;7.60;99.90
61253;DHT22;47127;47.516;8.596;2023-04-08T01:35:00;7.60;99.90
61253;DHT22;47127;47.516;8.596;2023-04-08T01:37:27;7.70;99.90
61253;DHT22;47127;47.516;8.596;2023-04-08T01:39:54;7.70;99.90
61253;DHT22;47127;47.516;8.596;2023-04-08T01:42:22;7.70;99.90
61253;DHT22;47127;47.516;8.596;2023-04-08T01:44:49;7.80;99.90
61253;DHT22;47127;47.516;8.596;2023-04-08T01:47:15;7.80;99.90
61253;DHT22;47127;47.516;8.596;2023-04-08T01:49:41;7.80;99.90
61253;DHT22;47127;47.516;8.596;2023-04-08T01:52:08;7.80;99.90
61253;DHT22;47127;47.516;8.596;2023-04-08T01:54:34;7.70;99.90
61253;DHT22;47127;47.516;8.596;2023-04-08T01:57:03;7.80;99.90
61253;DHT22;47127;47.516;8.596;2023-04-08T01:59:34;7.80;99.90
61253;DHT22;47127;47.516;8.596;2023-04-08T02:02:01;7.80;99.90
61253;DHT22;47127;47.516;8.596;2023-04-08T02:04:27;7.80;99.90
61253;DHT22;47127;47.516;8.596;2023-04-08T02:06:55;7.80;99.90
61253;DHT22;47127;47.516;8.596;2023-04-08T02:09:21;7.80;99.90
61253;DHT22;47127;47.516;8.596;2023-04-08T02:11:46;7.80;99.90
61253;DHT22;47127;47.516;8.596;2023-04-08T02:14:12;7.80;99.90
61253;DHT22;47127;47.516;8.596;2023-04-08T02:17:10;7.80;99.90
61253;DHT22;47127;47.516;8.596;2023-04-08T02:19:51;7.80;99.90
61253;DHT22;47127;47.516;8.596;2023-04-08T02:22:40;7.70;99.90
61253;DHT22;47127;47.516;8.596;2023-04-08T02:25:10;7.60;99.90
61253;DHT22;47127;47.516;8.596;2023-04-08T02:27:38;7.60;99.90
61253;DHT22;47127;47.516;8.596;2023-04-08T02:30:06;7.60;99.90
61253;DHT22;47127;47.516;8.596;2023-04-08T02:32:33;7.70;99.90
61253;DHT22;47127;47.516;8.596;2023-04-08T02:35:00;7.70;99.90
61253;DHT22;47127;47.516;8.596;2023-04-08T02:37:28;7.70;99.90
61253;DHT22;47127;47.516;8.596;2023-04-08T02:39:54;7.60;99.90
61253;DHT22;47127;47.516;8.596;2023-04-08T02:42:20;7.60;99.90
61253;DHT22;47127;47.516;8.596;2023-04-08T02:44:45;7.70;99.90
61253;DHT22;47127;47.516;8.596;2023-04-08T02:47:11;7.70;99.90
61253;DHT22;47127;47.516;8.596;2023-04-08T02:49:37;7.70;99.90
61253;DHT22;47127;47.516;8.596;2023-04-08T02:52:02;7.70;99.90
61253;DHT22;47127;47.516;8.596;2023-04-08T02:54:28;7.60;99.90
61253;DHT22;47127;47.516;8.596;2023-04-08T02:56:54;7.50;99.90
61253;DHT22;47127;47.516;8.596;2023-04-08T02:59:19;7.50;99.90
61253;DHT22;47127;47.516;8.596;2023-04-08T03:01:45;7.60;99.90
61253;DHT22;47127;47.516;8.596;2023-04-08T03:04:10;7.50;99.90
61253;DHT22;47127;47.516;8.596;2023-04-08T03:06:36;7.50;99.90
61253;DHT22;47127;47.516;8.596;2023-04-08T03:09:02;7.50;99.90
61253;DHT22;47127;47.516;8.596;2023-04-08T03:11:30;7.60;99.90
61253;DHT22;47127;47.516;8.596;2023-04-08T03:13:55;7.50;99.90
61253;DHT22;47127;47.516;8.596;2023-04-08T03:16:21;7.50;99.90
61253;DHT22;47127;47.516;8.596;2023-04-08T03:18:48;7.50;99.90
61253;DHT22;47127;47.516;8.596;2023-04-08T03:21:15;7.50;99.90
61253;DHT22;47127;47.516;8.596;2023-04-08T03:23:40;7.50;99.90
61253;DHT22;47127;47.516;8.596;2023-04-08T03:26:06;7.40;99.90
61253;DHT22;47127;47.516;8.596;2023-04-08T03:28:31;7.40;99.90
61253;DHT22;47127;47.516;8.596;2023-04-08T03:30:57;7.40;99.90
61253;DHT22;47127;47.516;8.596;2023-04-08T03:33:22;7.40;99.90
61253;DHT22;47127;47.516;8.596;2023-04-08T03:35:48;7.40;99.90
61253;DHT22;47127;47.516;8.596;2023-04-08T03:38:13;7.40;99.90
61253;DHT22;47127;47.516;8.596;2023-04-08T03:40:40;7.40;99.90
61253;DHT22;47127;47.516;8.596;2023-04-08T03:43:05;7.40;99.90
61253;DHT22;47127;47.516;8.596;2023-04-08T03:45:33;7.50;99.90
61253;DHT22;47127;47.516;8.596;2023-04-08T03:47:58;7.50;99.90
61253;DHT22;47127;47.516;8.596;2023-04-08T03:50:24;7.50;99.90
61253;DHT22;47127;47.516;8.596;2023-04-08T03:52:50;7.50;99.90
61253;DHT22;47127;47.516;8.596;2023-04-08T03:55:15;7.50;99.90
61253;DHT22;47127;47.516;8.596;2023-04-08T03:57:42;7.60;99.90
61253;DHT22;47127;47.516;8.596;2023-04-08T04:00:08;7.60;99.90
61253;DHT22;47127;47.516;8.596;2023-04-08T04:02:34;7.50;99.90
61253;DHT22;47127;47.516;8.596;2023-04-08T04:04:59;7.50;99.90
61253;DHT22;47127;47.516;8.596;2023-04-08T04:07:25;7.50;99.90
61253;DHT22;47127;47.516;8.596;2023-04-08T04:09:50;7.50;99.90
61253;DHT22;47127;47.516;8.596;2023-04-08T04:12:18;7.50;99.90
61253;DHT22;47127;47.516;8.596;2023-04-08T04:14:44;7.50;99.90
61253;DHT22;47127;47.516;8.596;2023-04-08T04:17:09;7.50;99.90
61253;DHT22;47127;47.516;8.596;2023-04-08T04:19:35;7.60;99.90
61253;DHT22;47127;47.516;8.596;2023-04-08T04:22:01;7.50;99.90
61253;DHT22;47127;47.516;8.596;2023-04-08T04:24:26;7.50;99.90
61253;DHT22;47127;47.516;8.596;2023-04-08T04:26:52;7.60;99.90
61253;DHT22;47127;47.516;8.596;2023-04-08T04:29:17;7.50;99.90
61253;DHT22;47127;47.516;8.596;2023-04-08T04:31:43;7.60;99.90
61253;DHT22;47127;47.516;8.596;2023-04-08T04:34:08;7.60;99.90
61253;DHT22;47127;47.516;8.596;2023-04-08T04:36:34;7.40;99.90
61253;DHT22;47127;47.516;8.596;2023-04-08T04:38:59;7.50;99.90
61253;DHT22;47127;47.516;8.596;2023-04-08T04:41:25;7.50;99.90
61253;DHT22;47127;47.516;8.596;2023-04-08T04:43:51;7.60;99.90
61253;DHT22;47127;47.516;8.596;2023-04-08T04:46:17;7.60;99.90
61253;DHT22;47127;47.516;8.596;2023-04-08T04:48:42;7.60;99.90
61253;DHT22;47127;47.516;8.596;2023-04-08T04:51:08;7.60;99.90
61253;DHT22;47127;47.516;8.596;2023-04-08T04:53:34;7.50;99.90
61253;DHT22;47127;47.516;8.596;2023-04-08T04:55:59;7.40;99.90
61253;DHT22;47127;47.516;8.596;2023-04-08T04:58:28;7.30;99.90
61253;DHT22;47127;47.516;8.596;2023-04-08T05:00:55;7.40;99.90
61253;DHT22;47127;47.516;8.596;2023-04-08T05:03:20;7.40;99.90
61253;DHT22;47127;47.516;8.596;2023-04-08T05:05:52;7.40;99.90
61253;DHT22;47127;47.516;8.596;2023-04-08T05:08:18;7.40;99.90
61253;DHT22;47127;47.516;8.596;2023-04-08T05:10:44;7.50;99.90
61253;DHT22;47127;47.516;8.596;2023-04-08T05:13:10;7.50;99.90
61253;DHT22;47127;47.516;8.596;2023-04-08T05:15:35;7.40;99.90
61253;DHT22;47127;47.516;8.596;2023-04-08T05:18:01;7.50;99.90
61253;DHT22;47127;47.516;8.596;2023-04-08T05:20:27;7.40;99.90
61253;DHT22;47127;47.516;8.596;2023-04-08T05:22:52;7.40;99.90
61253;DHT22;47127;47.516;8.596;2023-04-08T05:25:19;7.40;99.90
61253;DHT22;47127;47.516;8.596;2023-04-08T05:27:45;7.40;99.90
61253;DHT22;47127;47.516;8.596;2023-04-08T05:30:11;7.50;99.90
61253;DHT22;47127;47.516;8.596;2023-04-08T05:32:37;7.50;99.90
61253;DHT22;47127;47.516;8.596;2023-04-08T05:35:03;7.50;99.90
61253;DHT22;47127;47.516;8.596;2023-04-08T05:37:29;7.40;99.90
61253;DHT22;47127;47.516;8.596;2023-04-08T05:39:55;7.50;99.90
61253;DHT22;47127;47.516;8.596;2023-04-08T05:42:20;7.60;99.90
61253;DHT22;47127;47.516;8.596;2023-04-08T05:44:46;7.60;99.90
61253;DHT22;47127;47.516;8.596;2023-04-08T05:47:11;7.70;99.90
61253;DHT22;47127;47.516;8.596;2023-04-08T05:49:37;7.60;99.90
61253;DHT22;47127;47.516;8.596;2023-04-08T05:52:03;7.70;99.90
61253;DHT22;47127;47.516;8.596;2023-04-08T05:54:29;7.70;99.90
61253;DHT22;47127;47.516;8.596;2023-04-08T05:56:54;7.80;99.90
61253;DHT22;47127;47.516;8.596;2023-04-08T05:59:20;7.80;99.90
61253;DHT22;47127;47.516;8.596;2023-04-08T06:01:45;7.80;99.90
61253;DHT22;47127;47.516;8.596;2023-04-08T06:04:12;7.80;99.90
61253;DHT22;47127;47.516;8.596;2023-04-08T06:06:38;7.90;99.90
61253;DHT22;47127;47.516;8.596;2023-04-08T06:09:07;7.90;99.90
61253;DHT22;47127;47.516;8.596;2023-04-08T06:11:34;7.80;99.90
61253;DHT22;47127;47.516;8.596;2023-04-08T06:14:01;7.80;99.90
61253;DHT22;47127;47.516;8.596;2023-04-08T06:16:26;7.80;99.90
61253;DHT22;47127;47.516;8.596;2023-04-08T06:18:52;7.70;99.90
61253;DHT22;47127;47.516;8.596;2023-04-08T06:21:18;7.80;99.90
61253;DHT22;47127;47.516;8.596;2023-04-08T06:23:43;7.80;99.90
61253;DHT22;47127;47.516;8.596;2023-04-08T06:26:09;7.80;99.90
61253;DHT22;47127;47.516;8.596;2023-04-08T06:28:35;7.90;99.90
61253;DHT22;47127;47.516;8.596;2023-04-08T06:31:00;7.90;99.90
61253;DHT22;47127;47.516;8.596;2023-04-08T06:33:26;7.90;99.90
61253;DHT22;47127;47.516;8.596;2023-04-08T06:35:59;7.90;99.90
61253;DHT22;47127;47.516;8.596;2023-04-08T06:38:26;8.00;99.90
61253;DHT22;47127;47.516;8.596;2023-04-08T06:40:51;8.00;99.90
61253;DHT22;47127;47.516;8.596;2023-04-08T06:43:17;8.00;99.90
61253;DHT22;47127;47.516;8.596;2023-04-08T06:45:42;8.00;99.90
61253;DHT22;47127;47.516;8.596;2023-04-08T06:48:08;8.00;99.90
61253;DHT22;47127;47.516;8.596;2023-04-08T06:50:34;8.10;99.90
61253;DHT22;47127;47.516;8.596;2023-04-08T06:53:00;8.10;99.90
61253;DHT22;47127;47.516;8.596;2023-04-08T06:55:26;8.10;99.90
61253;DHT22;47127;47.516;8.596;2023-04-08T06:57:51;8.20;99.90
61253;DHT22;47127;47.516;8.596;2023-04-08T07:00:17;8.20;99.90
61253;DHT22;47127;47.516;8.596;2023-04-08T07:02:42;8.30;99.90
61253;DHT22;47127;47.516;8.596;2023-04-08T07:05:08;8.40;99.90
61253;DHT22;47127;47.516;8.596;2023-04-08T07:07:34;8.40;99.90
61253;DHT22;47127;47.516;8.596;2023-04-08T07:10:00;8.40;99.90
61253;DHT22;47127;47.516;8.596;2023-04-08T07:12:27;8.50;99.90
61253;DHT22;47127;47.516;8.596;2023-04-08T07:14:52;8.50;99.90
61253;DHT22;47127;47.516;8.596;2023-04-08T07:17:18;8.60;99.90
61253;DHT22;47127;47.516;8.596;2023-04-08T07:19:44;8.60;99.90
61253;DHT22;47127;47.516;8.596;2023-04-08T07:22:09;8.70;99.90
61253;DHT22;47127;47.516;8.596;2023-04-08T07:24:35;8.70;99.90
61253;DHT22;47127;47.516;8.596;2023-04-08T07:27:00;8.80;99.90
61253;DHT22;47127;47.516;8.596;2023-04-08T07:29:26;9.00;99.90
61253;DHT22;47127;47.516;8.596;2023-04-08T07:31:52;9.00;99.90
61253;DHT22;47127;47.516;8.596;2023-04-08T07:34:18;9.10;99.90
61253;DHT22;47127;47.516;8.596;2023-04-08T07:36:44;9.10;99.90
61253;DHT22;47127;47.516;8.596;2023-04-08T07:39:10;9.30;99.90
61253;DHT22;47127;47.516;8.596;2023-04-08T07:41:35;9.30;99.90
61253;DHT22;47127;47.516;8.596;2023-04-08T07:44:01;9.20;99.90
61253;DHT22;47127;47.516;8.596;2023-04-08T07:46:26;9.30;99.90
61253;DHT22;47127;47.516;8.596;2023-04-08T07:48:52;9.40;99.90
61253;DHT22;47127;47.516;8.596;2023-04-08T07:51:17;9.40;99.90
61253;DHT22;47127;47.516;8.596;2023-04-08T07:53:43;9.40;99.90
61253;DHT22;47127;47.516;8.596;2023-04-08T07:56:13;9.60;99.90
61253;DHT22;47127;47.516;8.596;2023-04-08T07:58:39;9.60;99.90
61253;DHT22;47127;47.516;8.596;2023-04-08T08:01:20;9.60;99.90
61253;DHT22;47127;47.516;8.596;2023-04-08T08:03:53;9.60;99.90
61253;DHT22;47127;47.516;8.596;2023-04-08T08:06:19;9.80;99.90
61253;DHT22;47127;47.516;8.596;2023-04-08T08:08:44;9.80;99.90
61253;DHT22;47127;47.516;8.596;2023-04-08T08:11:10;9.90;99.90
61253;DHT22;47127;47.516;8.596;2023-04-08T08:13:36;9.80;99.90
61253;DHT22;47127;47.516;8.596;2023-04-08T08:16:01;9.80;99.90
61253;DHT22;47127;47.516;8.596;2023-04-08T08:18:27;9.80;99.90
61253;DHT22;47127;47.516;8.596;2023-04-08T08:20:52;10.00;99.90
61253;DHT22;47127;47.516;8.596;2023-04-08T08:23:19;10.10;99.90
61253;DHT22;47127;47.516;8.596;2023-04-08T08:25:45;10.30;99.90
61253;DHT22;47127;47.516;8.596;2023-04-08T08:28:12;10.30;99.90
61253;DHT22;47127;47.516;8.596;2023-04-08T08:30:37;10.40;99.90
61253;DHT22;47127;47.516;8.596;2023-04-08T08:33:03;10.50;99.90
61253;DHT22;47127;47.516;8.596;2023-04-08T08:35:28;10.60;99.90
61253;DHT22;47127;47.516;8.596;2023-04-08T08:37:54;10.70;99.90
61253;DHT22;47127;47.516;8.596;2023-04-08T08:40:19;10.70;99.90
61253;DHT22;47127;47.516;8.596;2023-04-08T08:42:51;10.80;99.90
61253;DHT22;47127;47.516;8.596;2023-04-08T08:45:20;10.80;99.90
61253;DHT22;47127;47.516;8.596;2023-04-08T08:47:46;11.00;99.90
61253;DHT22;47127;47.516;8.596;2023-04-08T08:50:12;11.10;99.90
61253;DHT22;47127;47.516;8.596;2023-04-08T08:52:37;11.20;99.90
61253;DHT22;47127;47.516;8.596;2023-04-08T08:55:03;11.50;99.90
61253;DHT22;47127;47.516;8.596;2023-04-08T08:57:29;11.60;99.90
61253;DHT22;47127;47.516;8.596;2023-04-08T08:59:54;11.80;99.90
61253;DHT22;47127;47.516;8.596;2023-04-08T09:02:30;11.80;99.90
61253;DHT22;47127;47.516;8.596;2023-04-08T09:05:03;11.90;99.90
61253;DHT22;47127;47.516;8.596;2023-04-08T09:07:35;11.80;99.90
61253;DHT22;47127;47.516;8.596;2023-04-08T09:10:01;11.70;99.90
61253;DHT22;47127;47.516;8.596;2023-04-08T09:12:28;11.90;99.90
61253;DHT22;47127;47.516;8.596;2023-04-08T09:15:06;11.90;99.90
61253;DHT22;47127;47.516;8.596;2023-04-08T09:17:37;11.60;99.90
61253;DHT22;47127;47.516;8.596;2023-04-08T09:20:11;11.50;99.90
61253;DHT22;47127;47.516;8.596;2023-04-08T09:25:24;11.60;99.90
61253;DHT22;47127;47.516;8.596;2023-04-08T09:27:50;11.50;99.90
61253;DHT22;47127;47.516;8.596;2023-04-08T09:30:16;11.50;99.90
61253;DHT22;47127;47.516;8.596;2023-04-08T09:32:56;11.40;99.90
61253;DHT22;47127;47.516;8.596;2023-04-08T09:35:23;11.20;99.90
61253;DHT22;47127;47.516;8.596;2023-04-08T09:37:49;11.20;99.90
61253;DHT22;47127;47.516;8.596;2023-04-08T09:40:15;11.30;99.90
61253;DHT22;47127;47.516;8.596;2023-04-08T09:42:47;11.40;99.90
61253;DHT22;47127;47.516;8.596;2023-04-08T09:45:17;11.50;99.90
61253;DHT22;47127;47.516;8.596;2023-04-08T09:48:23;11.60;99.90
61253;DHT22;47127;47.516;8.596;2023-04-08T09:50:49;11.70;99.90
61253;DHT22;47127;47.516;8.596;2023-04-08T09:53:37;11.80;99.90
61253;DHT22;47127;47.516;8.596;2023-04-08T09:56:11;11.80;99.90
61253;DHT22;47127;47.516;8.596;2023-04-08T09:58:56;11.80;99.90
61253;DHT22;47127;47.516;8.596;2023-04-08T10:01:37;11.80;99.90
61253;DHT22;47127;47.516;8.596;2023-04-08T10:04:11;11.90;99.90
61253;DHT22;47127;47.516;8.596;2023-04-08T10:06:37;11.90;99.90
61253;DHT22;47127;47.516;8.596;2023-04-08T10:09:05;11.80;99.90
61253;DHT22;47127;47.516;8.596;2023-04-08T10:11:32;11.90;99.90
61253;DHT22;47127;47.516;8.596;2023-04-08T10:13:59;11.90;99.90
61253;DHT22;47127;47.516;8.596;2023-04-08T10:16:26;12.00;99.90
61253;DHT22;47127;47.516;8.596;2023-04-08T10:18:53;12.00;99.90
61253;DHT22;47127;47.516;8.596;2023-04-08T10:21:40;12.00;99.90
61253;DHT22;47127;47.516;8.596;2023-04-08T10:24:13;12.00;99.90
61253;DHT22;47127;47.516;8.596;2023-04-08T10:26:40;11.80;99.90
61253;DHT22;47127;47.516;8.596;2023-04-08T10:31:48;12.00;99.90
61253;DHT22;47127;47.516;8.596;2023-04-08T10:34:18;12.00;99.90
61253;DHT22;47127;47.516;8.596;2023-04-08T10:36:46;11.80;99.90
61253;DHT22;47127;47.516;8.596;2023-04-08T10:39:13;12.00;99.90
61253;DHT22;47127;47.516;8.596;2023-04-08T10:41:47;12.10;99.90
61253;DHT22;47127;47.516;8.596;2023-04-08T10:44:23;12.10;99.90
61253;DHT22;47127;47.516;8.596;2023-04-08T10:46:50;12.20;99.90
61253;DHT22;47127;47.516;8.596;2023-04-08T10:49:18;12.30;99.90
61253;DHT22;47127;47.516;8.596;2023-04-08T10:51:44;12.40;99.90
61253;DHT22;47127;47.516;8.596;2023-04-08T10:54:15;12.50;99.90
61253;DHT22;47127;47.516;8.596;2023-04-08T10:56:50;12.60;99.90
61253;DHT22;47127;47.516;8.596;2023-04-08T10:59:26;12.80;99.60
61253;DHT22;47127;47.516;8.596;2023-04-08T11:01:52;12.80;99.20
61253;DHT22;47127;47.516;8.596;2023-04-08T11:04:18;12.90;99.50
61253;DHT22;47127;47.516;8.596;2023-04-08T11:06:45;13.00;98.90
61253;DHT22;47127;47.516;8.596;2023-04-08T11:09:12;13.00;98.50
61253;DHT22;47127;47.516;8.596;2023-04-08T11:11:43;13.30;98.20
61253;DHT22;47127;47.516;8.596;2023-04-08T11:14:09;13.40;98.20
61253;DHT22;47127;47.516;8.596;2023-04-08T11:16:36;13.50;97.80
61253;DHT22;47127;47.516;8.596;2023-04-08T11:19:03;13.40;98.20
61253;DHT22;47127;47.516;8.596;2023-04-08T11:21:34;13.40;97.80
61253;DHT22;47127;47.516;8.596;2023-04-08T11:24:00;13.30;97.10
61253;DHT22;47127;47.516;8.596;2023-04-08T11:26:30;13.30;96.30
61253;DHT22;47127;47.516;8.596;2023-04-08T11:28:56;13.10;96.50
61253;DHT22;47127;47.516;8.596;2023-04-08T11:31:22;13.10;97.00
61253;DHT22;47127;47.516;8.596;2023-04-08T11:33:48;13.00;96.80
61253;DHT22;47127;47.516;8.596;2023-04-08T11:36:17;12.90;97.10
61253;DHT22;47127;47.516;8.596;2023-04-08T11:38:43;12.70;98.10
61253;DHT22;47127;47.516;8.596;2023-04-08T11:41:09;12.30;99.40
61253;DHT22;47127;47.516;8.596;2023-04-08T11:43:37;12.00;99.90
61253;DHT22;47127;47.516;8.596;2023-04-08T11:46:09;11.70;99.90
61253;DHT22;47127;47.516;8.596;2023-04-08T11:48:35;11.50;99.90
61253;DHT22;47127;47.516;8.596;2023-04-08T11:51:05;11.30;99.90
61253;DHT22;47127;47.516;8.596;2023-04-08T11:53:34;11.10;99.90
61253;DHT22;47127;47.516;8.596;2023-04-08T11:56:20;11.10;99.90
61253;DHT22;47127;47.516;8.596;2023-04-08T11:58:47;11.10;99.90
61253;DHT22;47127;47.516;8.596;2023-04-08T12:01:13;11.10;99.90
61253;DHT22;47127;47.516;8.596;2023-04-08T12:03:52;11.20;99.90
61253;DHT22;47127;47.516;8.596;2023-04-08T12:06:17;11.20;99.90
61253;DHT22;47127;47.516;8.596;2023-04-08T12:08:43;11.20;99.90
61253;DHT22;47127;47.516;8.596;2023-04-08T12:11:09;11.20;99.90
61253;DHT22;47127;47.516;8.596;2023-04-08T12:13:36;11.20;99.90
61253;DHT22;47127;47.516;8.596;2023-04-08T12:16:01;11.20;99.90
61253;DHT22;47127;47.516;8.596;2023-04-08T12:18:27;11.30;99.90
61253;DHT22;47127;47.516;8.596;2023-04-08T12:20:52;11.30;99.90
61253;DHT22;47127;47.516;8.596;2023-04-08T12:23:20;11.40;99.90
61253;DHT22;47127;47.516;8.596;2023-04-08T12:25:45;11.50;99.90
61253;DHT22;47127;47.516;8.596;2023-04-08T12:28:11;11.60;99.90
61253;DHT22;47127;47.516;8.596;2023-04-08T12:30:37;11.60;99.90
61253;DHT22;47127;47.516;8.596;2023-04-08T12:33:03;11.60;99.90
61253;DHT22;47127;47.516;8.596;2023-04-08T12:35:29;11.80;99.90
61253;DHT22;47127;47.516;8.596;2023-04-08T12:37:56;11.90;99.90
61253;DHT22;47127;47.516;8.596;2023-04-08T12:40:22;12.10;99.90
61253;DHT22;47127;47.516;8.596;2023-04-08T12:42:48;12.10;99.90
61253;DHT22;47127;47.516;8.596;2023-04-08T12:45:13;12.20;99.90
61253;DHT22;47127;47.516;8.596;2023-04-08T12:47:39;12.20;99.90
61253;DHT22;47127;47.516;8.596;2023-04-08T12:50:05;12.40;99.90
61253;DHT22;47127;47.516;8.596;2023-04-08T12:52:31;12.40;99.90
61253;DHT22;47127;47.516;8.596;2023-04-08T12:54:57;12.60;99.90
61253;DHT22;47127;47.516;8.596;2023-04-08T12:57:23;12.70;99.90
61253;DHT22;47127;47.516;8.596;2023-04-08T12:59:48;13.00;99.60
61253;DHT22;47127;47.516;8.596;2023-04-08T13:02:14;13.00;99.50
61253;DHT22;47127;47.516;8.596;2023-04-08T13:04:39;12.90;99.40
61253;DHT22;47127;47.516;8.596;2023-04-08T13:07:05;13.00;99.50
61253;DHT22;47127;47.516;8.596;2023-04-08T13:09:31;12.90;98.90
61253;DHT22;47127;47.516;8.596;2023-04-08T13:11:57;12.70;98.60
61253;DHT22;47127;47.516;8.596;2023-04-08T13:14:24;12.70;98.50
61253;DHT22;47127;47.516;8.596;2023-04-08T13:16:49;12.30;99.10
61253;DHT22;47127;47.516;8.596;2023-04-08T13:19:15;12.50;99.30
61253;DHT22;47127;47.516;8.596;2023-04-08T13:21:41;12.30;99.40
61253;DHT22;47127;47.516;8.596;2023-04-08T13:24:06;12.20;98.40
61253;DHT22;47127;47.516;8.596;2023-04-08T13:26:32;12.10;97.80
61253;DHT22;47127;47.516;8.596;2023-04-08T13:28:57;12.00;97.30
61253;DHT22;47127;47.516;8.596;2023-04-08T13:31:23;12.10;98.10
61253;DHT22;47127;47.516;8.596;2023-04-08T13:33:49;12.00;98.20
61253;DHT22;47127;47.516;8.596;2023-04-08T13:36:14;11.80;98.50
61253;DHT22;47127;47.516;8.596;2023-04-08T13:38:40;11.60;98.80
61253;DHT22;47127;47.516;8.596;2023-04-08T13:41:05;11.50;99.40
61253;DHT22;47127;47.516;8.596;2023-04-08T13:43:31;11.50;99.80
61253;DHT22;47127;47.516;8.596;2023-04-08T13:45:57;11.60;98.70
61253;DHT22;47127;47.516;8.596;2023-04-08T13:48:23;11.70;99.00
61253;DHT22;47127;47.516;8.596;2023-04-08T13:50:48;11.60;98.50
61253;DHT22;47127;47.516;8.596;2023-04-08T13:53:14;11.60;98.10
61253;DHT22;47127;47.516;8.596;2023-04-08T13:55:40;11.60;97.40
61253;DHT22;47127;47.516;8.596;2023-04-08T13:58:06;11.70;97.60
61253;DHT22;47127;47.516;8.596;2023-04-08T14:00:31;11.80;97.80
61253;DHT22;47127;47.516;8.596;2023-04-08T14:02:57;11.90;97.00
61253;DHT22;47127;47.516;8.596;2023-04-08T14:05:22;11.90;97.60
61253;DHT22;47127;47.516;8.596;2023-04-08T14:07:48;12.00;97.70
61253;DHT22;47127;47.516;8.596;2023-04-08T14:10:15;11.90;98.10
61253;DHT22;47127;47.516;8.596;2023-04-08T14:12:41;11.90;97.70
61253;DHT22;47127;47.516;8.596;2023-04-08T14:15:07;12.00;97.40
61253;DHT22;47127;47.516;8.596;2023-04-08T14:17:33;12.00;97.40
61253;DHT22;47127;47.516;8.596;2023-04-08T14:20:00;12.00;97.70
61253;DHT22;47127;47.516;8.596;2023-04-08T14:22:30;12.10;97.70
61253;DHT22;47127;47.516;8.596;2023-04-08T14:24:56;12.20;97.40
61253;DHT22;47127;47.516;8.596;2023-04-08T14:27:22;12.30;97.90
61253;DHT22;47127;47.516;8.596;2023-04-08T14:29:47;12.30;97.80
61253;DHT22;47127;47.516;8.596;2023-04-08T14:32:13;12.30;98.10
61253;DHT22;47127;47.516;8.596;2023-04-08T14:34:38;12.30;97.80
61253;DHT22;47127;47.516;8.596;2023-04-08T14:37:04;12.20;97.50
61253;DHT22;47127;47.516;8.596;2023-04-08T14:39:29;12.10;97.90
61253;DHT22;47127;47.516;8.596;2023-04-08T14:41:55;12.20;98.60
61253;DHT22;47127;47.516;8.596;2023-04-08T14:44:22;12.30;99.10
61253;DHT22;47127;47.516;8.596;2023-04-08T14:46:48;12.40;99.50
61253;DHT22;47127;47.516;8.596;2023-04-08T14:49:13;12.30;99.90
61253;DHT22;47127;47.516;8.596;2023-04-08T14:51:39;12.30;99.90
61253;DHT22;47127;47.516;8.596;2023-04-08T14:54:06;12.20;99.70
61253;DHT22;47127;47.516;8.596;2023-04-08T14:56:31;12.00;99.90
61253;DHT22;47127;47.516;8.596;2023-04-08T14:58:59;11.90;99.90
61253;DHT22;47127;47.516;8.596;2023-04-08T15:01:24;12.00;99.90
61253;DHT22;47127;47.516;8.596;2023-04-08T15:03:50;12.00;99.90
61253;DHT22;47127;47.516;8.596;2023-04-08T15:06:16;12.00;99.90
61253;DHT22;47127;47.516;8.596;2023-04-08T15:08:42;12.10;99.90
61253;DHT22;47127;47.516;8.596;2023-04-08T15:11:08;12.10;99.90
61253;DHT22;47127;47.516;8.596;2023-04-08T15:13:34;12.10;99.90
61253;DHT22;47127;47.516;8.596;2023-04-08T15:16:04;12.20;99.90
61253;DHT22;47127;47.516;8.596;2023-04-08T15:18:30;12.30;99.90
61253;DHT22;47127;47.516;8.596;2023-04-08T15:20:57;12.40;99.90
61253;DHT22;47127;47.516;8.596;2023-04-08T15:23:23;12.30;99.90
61253;DHT22;47127;47.516;8.596;2023-04-08T15:25:48;12.40;99.90
61253;DHT22;47127;47.516;8.596;2023-04-08T15:28:14;12.30;99.90
61253;DHT22;47127;47.516;8.596;2023-04-08T15:30:39;12.30;99.90
61253;DHT22;47127;47.516;8.596;2023-04-08T15:33:06;12.30;99.90
61253;DHT22;47127;47.516;8.596;2023-04-08T15:35:32;12.30;99.90
61253;DHT22;47127;47.516;8.596;2023-04-08T15:37:58;12.30;99.90
61253;DHT22;47127;47.516;8.596;2023-04-08T15:40:24;12.20;99.90
61253;DHT22;47127;47.516;8.596;2023-04-08T15:42:50;12.10;99.90
61253;DHT22;47127;47.516;8.596;2023-04-08T15:45:16;12.20;99.90
61253;DHT22;47127;47.516;8.596;2023-04-08T15:47:41;12.10;99.90
61253;DHT22;47127;47.516;8.596;2023-04-08T15:50:07;12.00;99.90